sensor_id;sensor_type;location;lat;lon;timestamp;P1;durP1;ratioP1;P2;durP2;ratioP2
17761;SDS011;9005;48.838;10.112;2023-09-30T00:00:15;6.53;;;3.70;;
17761;SDS011;9005;48.838;10.112;2023-09-30T00:02:41;5.07;;;3.40;;
17761;SDS011;9005;48.838;10.112;2023-09-30T00:05:08;4.68;;;3.40;;
17761;SDS011;9005;48.838;10.112;2023-09-30T00:07:36;3.60;;;2.60;;
17761;SDS011;9005;48.838;10.112;2023-09-30T00:10:03;4.88;;;3.00;;
17761;SDS011;9005;48.838;10.112;2023-09-30T00:12:31;3.92;;;2.83;;
17761;SDS011;9005;48.838;10.112;2023-09-30T00:14:58;3.70;;;2.33;;
17761;SDS011;9005;48.838;10.112;2023-09-30T00:17:25;5.25;;;3.42;;
17761;SDS011;9005;48.838;10.112;2023-09-30T00:19:51;6.18;;;2.95;;
17761;SDS011;9005;48.838;10.112;2023-09-30T00:22:18;4.55;;;2.97;;
17761;SDS011;9005;48.838;10.112;2023-09-30T00:24:45;5.57;;;3.15;;
17761;SDS011;9005;48.838;10.112;2023-09-30T00:27:12;3.78;;;2.72;;
17761;SDS011;9005;48.838;10.112;2023-09-30T00:29:40;3.65;;;2.63;;
17761;SDS011;9005;48.838;10.112;2023-09-30T00:32:07;4.85;;;2.97;;
17761;SDS011;9005;48.838;10.112;2023-09-30T00:34:33;4.72;;;2.70;;
17761;SDS011;9005;48.838;10.112;2023-09-30T00:37:00;4.78;;;2.85;;
17761;SDS011;9005;48.838;10.112;2023-09-30T00:39:27;4.40;;;3.15;;
17761;SDS011;9005;48.838;10.112;2023-09-30T00:41:55;5.35;;;3.08;;
17761;SDS011;9005;48.838;10.112;2023-09-30T00:44:23;4.05;;;2.50;;
17761;SDS011;9005;48.838;10.112;2023-09-30T00:46:51;4.82;;;3.05;;
17761;SDS011;9005;48.838;10.112;2023-09-30T00:49:20;4.63;;;2.83;;
17761;SDS011;9005;48.838;10.112;2023-09-30T00:51:47;4.50;;;2.97;;
17761;SDS011;9005;48.838;10.112;2023-09-30T00:54:15;3.80;;;2.78;;
17761;SDS011;9005;48.838;10.112;2023-09-30T00:56:43;3.67;;;2.63;;
17761;SDS011;9005;48.838;10.112;2023-09-30T00:59:11;5.93;;;2.67;;
17761;SDS011;9005;48.838;10.112;2023-09-30T01:01:39;5.95;;;2.92;;
17761;SDS011;9005;48.838;10.112;2023-09-30T01:04:07;4.95;;;2.80;;
17761;SDS011;9005;48.838;10.112;2023-09-30T01:06:34;6.38;;;2.92;;
17761;SDS011;9005;48.838;10.112;2023-09-30T01:09:01;3.72;;;2.80;;
17761;SDS011;9005;48.838;10.112;2023-09-30T01:11:29;4.22;;;2.58;;
17761;SDS011;9005;48.838;10.112;2023-09-30T01:13:56;3.92;;;2.78;;
17761;SDS011;9005;48.838;10.112;2023-09-30T01:16:23;5.60;;;2.53;;
17761;SDS011;9005;48.838;10.112;2023-09-30T01:18:49;5.30;;;2.88;;
17761;SDS011;9005;48.838;10.112;2023-09-30T01:21:18;3.92;;;2.63;;
17761;SDS011;9005;48.838;10.112;2023-09-30T01:23:47;3.20;;;2.40;;
17761;SDS011;9005;48.838;10.112;2023-09-30T01:26:14;3.95;;;2.80;;
17761;SDS011;9005;48.838;10.112;2023-09-30T01:28:40;4.03;;;2.85;;
17761;SDS011;9005;48.838;10.112;2023-09-30T01:31:07;3.85;;;2.25;;
17761;SDS011;9005;48.838;10.112;2023-09-30T01:33:34;3.42;;;2.42;;
17761;SDS011;9005;48.838;10.112;2023-09-30T01:36:01;3.67;;;2.03;;
17761;SDS011;9005;48.838;10.112;2023-09-30T01:38:27;4.45;;;2.45;;
17761;SDS011;9005;48.838;10.112;2023-09-30T01:40:56;3.10;;;2.53;;
17761;SDS011;9005;48.838;10.112;2023-09-30T01:43:22;3.08;;;2.10;;
17761;SDS011;9005;48.838;10.112;2023-09-30T01:45:49;4.63;;;2.70;;
17761;SDS011;9005;48.838;10.112;2023-09-30T01:48:16;3.15;;;2.20;;
17761;SDS011;9005;48.838;10.112;2023-09-30T01:50:43;3.63;;;2.20;;
17761;SDS011;9005;48.838;10.112;2023-09-30T01:53:09;3.60;;;2.40;;
17761;SDS011;9005;48.838;10.112;2023-09-30T01:55:36;2.50;;;1.98;;
17761;SDS011;9005;48.838;10.112;2023-09-30T01:58:04;2.65;;;1.75;;
17761;SDS011;9005;48.838;10.112;2023-09-30T02:00:31;2.53;;;1.80;;
17761;SDS011;9005;48.838;10.112;2023-09-30T02:02:59;3.47;;;2.17;;
17761;SDS011;9005;48.838;10.112;2023-09-30T02:05:26;4.05;;;1.90;;
17761;SDS011;9005;48.838;10.112;2023-09-30T02:07:53;3.30;;;1.90;;
17761;SDS011;9005;48.838;10.112;2023-09-30T02:10:19;2.80;;;1.85;;
17761;SDS011;9005;48.838;10.112;2023-09-30T02:12:46;4.07;;;2.50;;
17761;SDS011;9005;48.838;10.112;2023-09-30T02:15:15;3.65;;;2.13;;
17761;SDS011;9005;48.838;10.112;2023-09-30T02:17:42;6.38;;;2.75;;
17761;SDS011;9005;48.838;10.112;2023-09-30T02:20:10;2.83;;;2.10;;
17761;SDS011;9005;48.838;10.112;2023-09-30T02:22:41;2.92;;;1.98;;
17761;SDS011;9005;48.838;10.112;2023-09-30T02:25:08;3.50;;;2.22;;
17761;SDS011;9005;48.838;10.112;2023-09-30T02:27:37;2.78;;;2.05;;
17761;SDS011;9005;48.838;10.112;2023-09-30T02:30:07;2.50;;;2.00;;
17761;SDS011;9005;48.838;10.112;2023-09-30T02:32:36;2.78;;;1.92;;
17761;SDS011;9005;48.838;10.112;2023-09-30T02:35:04;2.90;;;1.95;;
17761;SDS011;9005;48.838;10.112;2023-09-30T02:37:32;2.35;;;1.85;;
17761;SDS011;9005;48.838;10.112;2023-09-30T02:40:01;3.15;;;2.13;;
17761;SDS011;9005;48.838;10.112;2023-09-30T02:42:29;2.35;;;2.15;;
17761;SDS011;9005;48.838;10.112;2023-09-30T02:44:59;3.67;;;2.08;;
17761;SDS011;9005;48.838;10.112;2023-09-30T02:47:26;2.08;;;1.85;;
17761;SDS011;9005;48.838;10.112;2023-09-30T02:49:54;2.80;;;2.10;;
17761;SDS011;9005;48.838;10.112;2023-09-30T02:52:22;2.88;;;1.40;;
17761;SDS011;9005;48.838;10.112;2023-09-30T02:54:49;2.63;;;2.20;;
17761;SDS011;9005;48.838;10.112;2023-09-30T02:57:16;1.58;;;1.40;;
17761;SDS011;9005;48.838;10.112;2023-09-30T02:59:44;2.20;;;2.00;;
17761;SDS011;9005;48.838;10.112;2023-09-30T03:02:11;2.40;;;1.88;;
17761;SDS011;9005;48.838;10.112;2023-09-30T03:04:38;2.58;;;2.00;;
17761;SDS011;9005;48.838;10.112;2023-09-30T03:07:06;2.03;;;1.88;;
17761;SDS011;9005;48.838;10.112;2023-09-30T03:09:33;4.07;;;1.92;;
17761;SDS011;9005;48.838;10.112;2023-09-30T03:12:00;2.63;;;2.10;;
17761;SDS011;9005;48.838;10.112;2023-09-30T03:14:29;2.85;;;1.90;;
17761;SDS011;9005;48.838;10.112;2023-09-30T03:16:57;2.67;;;2.13;;
17761;SDS011;9005;48.838;10.112;2023-09-30T03:19:23;2.35;;;2.20;;
17761;SDS011;9005;48.838;10.112;2023-09-30T03:21:50;3.15;;;2.85;;
17761;SDS011;9005;48.838;10.112;2023-09-30T03:24:18;2.95;;;2.50;;
17761;SDS011;9005;48.838;10.112;2023-09-30T03:26:46;2.83;;;1.92;;
17761;SDS011;9005;48.838;10.112;2023-09-30T03:29:13;2.42;;;2.17;;
17761;SDS011;9005;48.838;10.112;2023-09-30T03:31:39;2.67;;;2.47;;
17761;SDS011;9005;48.838;10.112;2023-09-30T03:34:06;2.65;;;2.45;;
17761;SDS011;9005;48.838;10.112;2023-09-30T03:36:33;2.65;;;2.17;;
17761;SDS011;9005;48.838;10.112;2023-09-30T03:39:00;2.70;;;2.50;;
17761;SDS011;9005;48.838;10.112;2023-09-30T03:41:32;5.00;;;2.40;;
17761;SDS011;9005;48.838;10.112;2023-09-30T03:44:00;2.88;;;2.30;;
17761;SDS011;9005;48.838;10.112;2023-09-30T03:46:27;2.88;;;2.53;;
17761;SDS011;9005;48.838;10.112;2023-09-30T03:48:55;2.50;;;2.20;;
17761;SDS011;9005;48.838;10.112;2023-09-30T03:51:21;2.58;;;2.10;;
17761;SDS011;9005;48.838;10.112;2023-09-30T03:53:50;2.55;;;2.22;;
17761;SDS011;9005;48.838;10.112;2023-09-30T03:56:17;2.55;;;2.10;;
17761;SDS011;9005;48.838;10.112;2023-09-30T03:58:45;2.30;;;2.08;;
17761;SDS011;9005;48.838;10.112;2023-09-30T04:01:13;2.75;;;2.08;;
17761;SDS011;9005;48.838;10.112;2023-09-30T04:03:40;2.67;;;2.22;;
17761;SDS011;9005;48.838;10.112;2023-09-30T04:06:08;3.65;;;2.20;;
17761;SDS011;9005;48.838;10.112;2023-09-30T04:08:35;2.83;;;2.10;;
17761;SDS011;9005;48.838;10.112;2023-09-30T04:11:02;2.45;;;2.25;;
17761;SDS011;9005;48.838;10.112;2023-09-30T04:13:29;3.28;;;2.08;;
17761;SDS011;9005;48.838;10.112;2023-09-30T04:15:56;3.28;;;2.30;;
17761;SDS011;9005;48.838;10.112;2023-09-30T04:18:23;4.45;;;2.55;;
17761;SDS011;9005;48.838;10.112;2023-09-30T04:20:51;2.40;;;2.20;;
17761;SDS011;9005;48.838;10.112;2023-09-30T04:23:18;4.80;;;2.42;;
17761;SDS011;9005;48.838;10.112;2023-09-30T04:25:45;3.00;;;2.45;;
17761;SDS011;9005;48.838;10.112;2023-09-30T04:28:12;1.98;;;1.75;;
17761;SDS011;9005;48.838;10.112;2023-09-30T04:30:40;3.35;;;2.22;;
17761;SDS011;9005;48.838;10.112;2023-09-30T04:33:08;3.05;;;2.10;;
17761;SDS011;9005;48.838;10.112;2023-09-30T04:35:37;3.47;;;2.10;;
17761;SDS011;9005;48.838;10.112;2023-09-30T04:38:03;4.25;;;2.17;;
17761;SDS011;9005;48.838;10.112;2023-09-30T04:40:31;2.92;;;2.42;;
17761;SDS011;9005;48.838;10.112;2023-09-30T04:42:58;4.93;;;2.90;;
17761;SDS011;9005;48.838;10.112;2023-09-30T04:45:25;3.20;;;2.20;;
17761;SDS011;9005;48.838;10.112;2023-09-30T04:47:52;2.70;;;1.90;;
17761;SDS011;9005;48.838;10.112;2023-09-30T04:50:22;4.43;;;2.17;;
17761;SDS011;9005;48.838;10.112;2023-09-30T04:52:49;2.95;;;2.45;;
17761;SDS011;9005;48.838;10.112;2023-09-30T04:55:16;2.42;;;2.20;;
17761;SDS011;9005;48.838;10.112;2023-09-30T04:57:43;2.38;;;1.88;;
17761;SDS011;9005;48.838;10.112;2023-09-30T05:00:11;4.90;;;2.83;;
17761;SDS011;9005;48.838;10.112;2023-09-30T05:02:39;2.63;;;2.42;;
17761;SDS011;9005;48.838;10.112;2023-09-30T05:05:06;2.65;;;2.45;;
17761;SDS011;9005;48.838;10.112;2023-09-30T05:07:35;4.88;;;2.50;;
17761;SDS011;9005;48.838;10.112;2023-09-30T05:10:02;4.05;;;2.97;;
17761;SDS011;9005;48.838;10.112;2023-09-30T05:12:30;4.03;;;2.60;;
17761;SDS011;9005;48.838;10.112;2023-09-30T05:14:58;3.25;;;2.40;;
17761;SDS011;9005;48.838;10.112;2023-09-30T05:17:24;3.03;;;2.15;;
17761;SDS011;9005;48.838;10.112;2023-09-30T05:19:51;4.05;;;2.53;;
17761;SDS011;9005;48.838;10.112;2023-09-30T05:22:19;3.40;;;2.08;;
17761;SDS011;9005;48.838;10.112;2023-09-30T05:24:50;5.97;;;2.28;;
17761;SDS011;9005;48.838;10.112;2023-09-30T05:27:18;2.20;;;1.90;;
17761;SDS011;9005;48.838;10.112;2023-09-30T05:29:44;2.42;;;2.00;;
17761;SDS011;9005;48.838;10.112;2023-09-30T05:32:11;2.92;;;2.25;;
17761;SDS011;9005;48.838;10.112;2023-09-30T05:34:39;3.95;;;2.28;;
17761;SDS011;9005;48.838;10.112;2023-09-30T05:37:06;2.40;;;2.13;;
17761;SDS011;9005;48.838;10.112;2023-09-30T05:39:33;2.20;;;2.00;;
17761;SDS011;9005;48.838;10.112;2023-09-30T05:42:01;2.38;;;2.15;;
17761;SDS011;9005;48.838;10.112;2023-09-30T05:44:30;2.38;;;2.03;;
17761;SDS011;9005;48.838;10.112;2023-09-30T05:46:57;3.20;;;1.98;;
17761;SDS011;9005;48.838;10.112;2023-09-30T05:49:24;3.47;;;1.98;;
17761;SDS011;9005;48.838;10.112;2023-09-30T05:51:52;2.30;;;2.10;;
17761;SDS011;9005;48.838;10.112;2023-09-30T05:54:20;2.85;;;2.55;;
17761;SDS011;9005;48.838;10.112;2023-09-30T05:56:47;3.22;;;1.90;;
17761;SDS011;9005;48.838;10.112;2023-09-30T05:59:15;2.03;;;1.83;;
17761;SDS011;9005;48.838;10.112;2023-09-30T06:01:42;3.30;;;2.15;;
17761;SDS011;9005;48.838;10.112;2023-09-30T06:04:11;2.80;;;2.38;;
17761;SDS011;9005;48.838;10.112;2023-09-30T06:06:38;2.83;;;2.10;;
17761;SDS011;9005;48.838;10.112;2023-09-30T06:09:05;3.10;;;2.30;;
17761;SDS011;9005;48.838;10.112;2023-09-30T06:11:33;3.20;;;2.17;;
17761;SDS011;9005;48.838;10.112;2023-09-30T06:14:01;3.28;;;2.40;;
17761;SDS011;9005;48.838;10.112;2023-09-30T06:16:32;3.03;;;2.60;;
17761;SDS011;9005;48.838;10.112;2023-09-30T06:18:59;3.58;;;2.35;;
17761;SDS011;9005;48.838;10.112;2023-09-30T06:21:26;3.25;;;2.40;;
17761;SDS011;9005;48.838;10.112;2023-09-30T06:23:54;2.50;;;2.28;;
17761;SDS011;9005;48.838;10.112;2023-09-30T06:26:21;3.83;;;2.63;;
17761;SDS011;9005;48.838;10.112;2023-09-30T06:28:50;2.88;;;2.58;;
17761;SDS011;9005;48.838;10.112;2023-09-30T06:31:19;3.22;;;2.10;;
17761;SDS011;9005;48.838;10.112;2023-09-30T06:33:47;2.88;;;2.55;;
17761;SDS011;9005;48.838;10.112;2023-09-30T06:36:14;4.68;;;2.15;;
17761;SDS011;9005;48.838;10.112;2023-09-30T06:38:41;3.28;;;2.10;;
17761;SDS011;9005;48.838;10.112;2023-09-30T06:41:14;4.65;;;2.70;;
17761;SDS011;9005;48.838;10.112;2023-09-30T06:43:41;3.55;;;2.47;;
17761;SDS011;9005;48.838;10.112;2023-09-30T06:46:08;3.25;;;2.53;;
17761;SDS011;9005;48.838;10.112;2023-09-30T06:48:35;3.20;;;2.25;;
17761;SDS011;9005;48.838;10.112;2023-09-30T06:51:06;4.15;;;2.50;;
17761;SDS011;9005;48.838;10.112;2023-09-30T06:53:33;4.47;;;2.70;;
17761;SDS011;9005;48.838;10.112;2023-09-30T06:56:02;5.57;;;3.25;;
17761;SDS011;9005;48.838;10.112;2023-09-30T06:58:31;5.20;;;2.67;;
17761;SDS011;9005;48.838;10.112;2023-09-30T07:00:58;4.22;;;2.53;;
17761;SDS011;9005;48.838;10.112;2023-09-30T07:03:24;2.95;;;2.20;;
17761;SDS011;9005;48.838;10.112;2023-09-30T07:05:51;5.68;;;3.47;;
17761;SDS011;9005;48.838;10.112;2023-09-30T07:08:20;2.88;;;2.30;;
17761;SDS011;9005;48.838;10.112;2023-09-30T07:10:47;4.05;;;2.83;;
17761;SDS011;9005;48.838;10.112;2023-09-30T07:13:15;3.80;;;2.85;;
17761;SDS011;9005;48.838;10.112;2023-09-30T07:15:43;3.47;;;2.75;;
17761;SDS011;9005;48.838;10.112;2023-09-30T07:18:09;3.33;;;3.03;;
17761;SDS011;9005;48.838;10.112;2023-09-30T07:20:37;4.55;;;2.75;;
17761;SDS011;9005;48.838;10.112;2023-09-30T07:23:04;3.03;;;2.78;;
17761;SDS011;9005;48.838;10.112;2023-09-30T07:25:32;5.30;;;2.47;;
17761;SDS011;9005;48.838;10.112;2023-09-30T07:27:59;3.85;;;2.63;;
17761;SDS011;9005;48.838;10.112;2023-09-30T07:30:26;3.42;;;2.53;;
17761;SDS011;9005;48.838;10.112;2023-09-30T07:32:53;4.18;;;3.00;;
17761;SDS011;9005;48.838;10.112;2023-09-30T07:35:20;4.80;;;3.00;;
17761;SDS011;9005;48.838;10.112;2023-09-30T07:37:47;2.80;;;2.60;;
17761;SDS011;9005;48.838;10.112;2023-09-30T07:40:17;3.92;;;2.78;;
17761;SDS011;9005;48.838;10.112;2023-09-30T07:42:45;3.20;;;2.63;;
17761;SDS011;9005;48.838;10.112;2023-09-30T07:45:11;4.40;;;2.83;;
17761;SDS011;9005;48.838;10.112;2023-09-30T07:47:41;3.33;;;3.03;;
17761;SDS011;9005;48.838;10.112;2023-09-30T07:50:09;4.15;;;2.95;;
17761;SDS011;9005;48.838;10.112;2023-09-30T07:52:37;4.20;;;3.22;;
17761;SDS011;9005;48.838;10.112;2023-09-30T07:55:05;5.07;;;2.50;;
17761;SDS011;9005;48.838;10.112;2023-09-30T07:57:33;6.07;;;3.38;;
17761;SDS011;9005;48.838;10.112;2023-09-30T08:00:01;5.45;;;3.05;;
17761;SDS011;9005;48.838;10.112;2023-09-30T08:02:32;2.83;;;2.50;;
17761;SDS011;9005;48.838;10.112;2023-09-30T08:04:59;3.83;;;2.63;;
17761;SDS011;9005;48.838;10.112;2023-09-30T08:07:26;3.08;;;2.33;;
17761;SDS011;9005;48.838;10.112;2023-09-30T08:09:53;2.40;;;2.20;;
17761;SDS011;9005;48.838;10.112;2023-09-30T08:12:20;2.50;;;2.30;;
17761;SDS011;9005;48.838;10.112;2023-09-30T08:14:46;3.90;;;2.63;;
17761;SDS011;9005;48.838;10.112;2023-09-30T08:17:15;5.07;;;3.00;;
17761;SDS011;9005;48.838;10.112;2023-09-30T08:19:42;2.65;;;2.40;;
17761;SDS011;9005;48.838;10.112;2023-09-30T08:22:09;5.28;;;3.00;;
17761;SDS011;9005;48.838;10.112;2023-09-30T08:24:36;3.58;;;2.40;;
17761;SDS011;9005;48.838;10.112;2023-09-30T08:27:03;3.58;;;2.63;;
17761;SDS011;9005;48.838;10.112;2023-09-30T08:29:32;3.38;;;2.88;;
17761;SDS011;9005;48.838;10.112;2023-09-30T08:32:01;4.50;;;3.20;;
17761;SDS011;9005;48.838;10.112;2023-09-30T08:34:29;2.47;;;2.25;;
17761;SDS011;9005;48.838;10.112;2023-09-30T08:36:56;4.32;;;2.80;;
17761;SDS011;9005;48.838;10.112;2023-09-30T08:39:23;5.13;;;2.85;;
17761;SDS011;9005;48.838;10.112;2023-09-30T08:41:50;3.38;;;2.42;;
17761;SDS011;9005;48.838;10.112;2023-09-30T08:44:17;12.38;;;2.90;;
17761;SDS011;9005;48.838;10.112;2023-09-30T08:46:44;2.95;;;2.60;;
17761;SDS011;9005;48.838;10.112;2023-09-30T08:49:12;2.83;;;2.55;;
17761;SDS011;9005;48.838;10.112;2023-09-30T08:51:42;4.15;;;2.85;;
17761;SDS011;9005;48.838;10.112;2023-09-30T08:54:09;3.20;;;2.50;;
17761;SDS011;9005;48.838;10.112;2023-09-30T08:56:36;4.05;;;3.03;;
17761;SDS011;9005;48.838;10.112;2023-09-30T08:59:06;3.55;;;2.50;;
17761;SDS011;9005;48.838;10.112;2023-09-30T09:01:33;3.30;;;2.47;;
17761;SDS011;9005;48.838;10.112;2023-09-30T09:04:00;5.50;;;2.80;;
17761;SDS011;9005;48.838;10.112;2023-09-30T09:06:28;4.28;;;2.80;;
17761;SDS011;9005;48.838;10.112;2023-09-30T09:08:56;2.70;;;2.50;;
17761;SDS011;9005;48.838;10.112;2023-09-30T09:11:39;3.03;;;2.72;;
17761;SDS011;9005;48.838;10.112;2023-09-30T09:14:06;4.45;;;2.55;;
17761;SDS011;9005;48.838;10.112;2023-09-30T09:16:33;4.65;;;3.17;;
17761;SDS011;9005;48.838;10.112;2023-09-30T09:19:04;4.25;;;3.20;;
17761;SDS011;9005;48.838;10.112;2023-09-30T09:21:39;3.35;;;2.78;;
17761;SDS011;9005;48.838;10.112;2023-09-30T09:24:28;3.90;;;3.30;;
17761;SDS011;9005;48.838;10.112;2023-09-30T09:27:05;5.45;;;3.13;;
17761;SDS011;9005;48.838;10.112;2023-09-30T09:29:33;3.58;;;3.00;;
17761;SDS011;9005;48.838;10.112;2023-09-30T09:32:10;3.47;;;2.85;;
17761;SDS011;9005;48.838;10.112;2023-09-30T09:34:38;4.50;;;3.20;;
17761;SDS011;9005;48.838;10.112;2023-09-30T09:37:15;4.35;;;3.08;;
17761;SDS011;9005;48.838;10.112;2023-09-30T09:39:50;5.13;;;3.55;;
17761;SDS011;9005;48.838;10.112;2023-09-30T09:42:25;4.53;;;3.15;;
17761;SDS011;9005;48.838;10.112;2023-09-30T09:44:54;4.30;;;2.92;;
17761;SDS011;9005;48.838;10.112;2023-09-30T09:47:22;5.25;;;3.25;;
17761;SDS011;9005;48.838;10.112;2023-09-30T09:49:50;4.32;;;2.92;;
17761;SDS011;9005;48.838;10.112;2023-09-30T09:52:18;4.63;;;3.38;;
17761;SDS011;9005;48.838;10.112;2023-09-30T09:54:45;4.30;;;3.15;;
17761;SDS011;9005;48.838;10.112;2023-09-30T09:57:14;3.67;;;3.13;;
17761;SDS011;9005;48.838;10.112;2023-09-30T09:59:42;3.53;;;2.85;;
17761;SDS011;9005;48.838;10.112;2023-09-30T10:02:10;4.53;;;3.35;;
17761;SDS011;9005;48.838;10.112;2023-09-30T10:04:39;5.03;;;3.53;;
17761;SDS011;9005;48.838;10.112;2023-09-30T10:07:07;5.00;;;3.03;;
17761;SDS011;9005;48.838;10.112;2023-09-30T10:09:39;3.90;;;2.75;;
17761;SDS011;9005;48.838;10.112;2023-09-30T10:12:13;5.10;;;3.00;;
17761;SDS011;9005;48.838;10.112;2023-09-30T10:14:41;4.45;;;3.15;;
17761;SDS011;9005;48.838;10.112;2023-09-30T10:17:09;3.97;;;3.25;;
17761;SDS011;9005;48.838;10.112;2023-09-30T10:19:36;3.72;;;3.22;;
17761;SDS011;9005;48.838;10.112;2023-09-30T10:22:23;3.58;;;2.80;;
17761;SDS011;9005;48.838;10.112;2023-09-30T10:24:51;3.17;;;2.38;;
17761;SDS011;9005;48.838;10.112;2023-09-30T10:27:33;3.42;;;3.03;;
17761;SDS011;9005;48.838;10.112;2023-09-30T10:30:05;5.07;;;3.05;;
17761;SDS011;9005;48.838;10.112;2023-09-30T10:35:45;3.85;;;2.70;;
17761;SDS011;9005;48.838;10.112;2023-09-30T10:41:03;3.88;;;2.95;;
17761;SDS011;9005;48.838;10.112;2023-09-30T10:43:32;2.75;;;2.30;;
17761;SDS011;9005;48.838;10.112;2023-09-30T10:46:00;4.15;;;3.25;;
17761;SDS011;9005;48.838;10.112;2023-09-30T10:48:34;3.38;;;2.63;;
17761;SDS011;9005;48.838;10.112;2023-09-30T10:51:00;4.18;;;3.03;;
17761;SDS011;9005;48.838;10.112;2023-09-30T10:53:39;4.72;;;2.85;;
17761;SDS011;9005;48.838;10.112;2023-09-30T10:56:11;5.10;;;2.97;;
17761;SDS011;9005;48.838;10.112;2023-09-30T10:58:40;3.42;;;2.90;;
17761;SDS011;9005;48.838;10.112;2023-09-30T11:01:08;4.03;;;3.00;;
17761;SDS011;9005;48.838;10.112;2023-09-30T11:03:35;4.38;;;2.80;;
17761;SDS011;9005;48.838;10.112;2023-09-30T11:06:02;5.22;;;3.13;;
17761;SDS011;9005;48.838;10.112;2023-09-30T11:08:29;4.68;;;2.80;;
17761;SDS011;9005;48.838;10.112;2023-09-30T11:10:56;5.47;;;3.75;;
17761;SDS011;9005;48.838;10.112;2023-09-30T11:13:25;4.55;;;3.42;;
17761;SDS011;9005;48.838;10.112;2023-09-30T11:16:01;4.93;;;3.88;;
17761;SDS011;9005;48.838;10.112;2023-09-30T11:18:30;6.20;;;3.45;;
17761;SDS011;9005;48.838;10.112;2023-09-30T11:21:07;4.43;;;3.30;;
17761;SDS011;9005;48.838;10.112;2023-09-30T11:23:35;4.38;;;3.25;;
17761;SDS011;9005;48.838;10.112;2023-09-30T11:26:03;4.97;;;3.53;;
17761;SDS011;9005;48.838;10.112;2023-09-30T11:28:38;4.18;;;3.42;;
17761;SDS011;9005;48.838;10.112;2023-09-30T11:31:08;11.00;;;3.55;;
17761;SDS011;9005;48.838;10.112;2023-09-30T11:33:52;5.00;;;3.13;;
17761;SDS011;9005;48.838;10.112;2023-09-30T11:36:22;5.75;;;3.78;;
17761;SDS011;9005;48.838;10.112;2023-09-30T11:38:50;6.18;;;3.20;;
17761;SDS011;9005;48.838;10.112;2023-09-30T11:41:18;4.50;;;3.42;;
17761;SDS011;9005;48.838;10.112;2023-09-30T11:43:59;5.18;;;3.50;;
17761;SDS011;9005;48.838;10.112;2023-09-30T11:46:31;4.28;;;3.42;;
17761;SDS011;9005;48.838;10.112;2023-09-30T11:49:00;5.88;;;3.72;;
17761;SDS011;9005;48.838;10.112;2023-09-30T11:51:42;4.50;;;3.20;;
17761;SDS011;9005;48.838;10.112;2023-09-30T11:54:11;4.03;;;3.30;;
17761;SDS011;9005;48.838;10.112;2023-09-30T11:56:37;5.15;;;3.47;;
17761;SDS011;9005;48.838;10.112;2023-09-30T11:59:04;5.40;;;3.55;;
17761;SDS011;9005;48.838;10.112;2023-09-30T12:01:32;5.07;;;4.05;;
17761;SDS011;9005;48.838;10.112;2023-09-30T12:03:59;4.90;;;3.72;;
17761;SDS011;9005;48.838;10.112;2023-09-30T12:06:26;5.82;;;4.05;;
17761;SDS011;9005;48.838;10.112;2023-09-30T12:08:52;6.28;;;4.72;;
17761;SDS011;9005;48.838;10.112;2023-09-30T12:11:19;5.70;;;4.32;;
17761;SDS011;9005;48.838;10.112;2023-09-30T12:13:47;6.97;;;4.20;;
17761;SDS011;9005;48.838;10.112;2023-09-30T12:16:14;6.53;;;4.43;;
17761;SDS011;9005;48.838;10.112;2023-09-30T12:18:42;6.28;;;4.90;;
17761;SDS011;9005;48.838;10.112;2023-09-30T12:21:10;7.00;;;3.90;;
17761;SDS011;9005;48.838;10.112;2023-09-30T12:23:38;6.25;;;4.82;;
17761;SDS011;9005;48.838;10.112;2023-09-30T12:26:05;8.20;;;4.47;;
17761;SDS011;9005;48.838;10.112;2023-09-30T12:28:33;6.60;;;4.32;;
17761;SDS011;9005;48.838;10.112;2023-09-30T12:30:59;6.78;;;4.70;;
17761;SDS011;9005;48.838;10.112;2023-09-30T12:33:28;6.60;;;5.03;;
17761;SDS011;9005;48.838;10.112;2023-09-30T12:35:56;5.93;;;4.18;;
17761;SDS011;9005;48.838;10.112;2023-09-30T12:38:23;5.38;;;3.97;;
17761;SDS011;9005;48.838;10.112;2023-09-30T12:40:52;5.28;;;3.83;;
17761;SDS011;9005;48.838;10.112;2023-09-30T12:43:20;5.55;;;3.92;;
17761;SDS011;9005;48.838;10.112;2023-09-30T12:45:47;6.30;;;4.03;;
17761;SDS011;9005;48.838;10.112;2023-09-30T12:48:14;6.38;;;3.75;;
17761;SDS011;9005;48.838;10.112;2023-09-30T12:50:42;5.50;;;3.53;;
17761;SDS011;9005;48.838;10.112;2023-09-30T12:53:10;5.00;;;3.78;;
17761;SDS011;9005;48.838;10.112;2023-09-30T12:55:37;5.13;;;4.00;;
17761;SDS011;9005;48.838;10.112;2023-09-30T12:58:04;5.32;;;3.80;;
17761;SDS011;9005;48.838;10.112;2023-09-30T13:00:31;5.47;;;4.03;;
17761;SDS011;9005;48.838;10.112;2023-09-30T13:02:58;5.28;;;4.05;;
17761;SDS011;9005;48.838;10.112;2023-09-30T13:05:24;6.70;;;4.72;;
17761;SDS011;9005;48.838;10.112;2023-09-30T13:07:52;8.40;;;5.07;;
17761;SDS011;9005;48.838;10.112;2023-09-30T13:10:20;6.18;;;4.68;;
17761;SDS011;9005;48.838;10.112;2023-09-30T13:12:47;6.95;;;4.50;;
17761;SDS011;9005;48.838;10.112;2023-09-30T13:15:15;5.55;;;4.40;;
17761;SDS011;9005;48.838;10.112;2023-09-30T13:17:42;5.85;;;4.78;;
17761;SDS011;9005;48.838;10.112;2023-09-30T13:20:09;7.32;;;4.85;;
17761;SDS011;9005;48.838;10.112;2023-09-30T13:22:37;6.20;;;4.38;;
17761;SDS011;9005;48.838;10.112;2023-09-30T13:25:04;6.00;;;4.45;;
17761;SDS011;9005;48.838;10.112;2023-09-30T13:27:34;6.20;;;4.22;;
17761;SDS011;9005;48.838;10.112;2023-09-30T13:30:01;8.80;;;4.85;;
17761;SDS011;9005;48.838;10.112;2023-09-30T13:32:28;6.30;;;4.25;;
17761;SDS011;9005;48.838;10.112;2023-09-30T13:34:55;5.55;;;4.30;;
17761;SDS011;9005;48.838;10.112;2023-09-30T13:37:23;7.15;;;4.85;;
17761;SDS011;9005;48.838;10.112;2023-09-30T13:39:55;9.07;;;4.88;;
17761;SDS011;9005;48.838;10.112;2023-09-30T13:42:21;6.72;;;5.22;;
17761;SDS011;9005;48.838;10.112;2023-09-30T13:44:49;7.32;;;4.95;;
17761;SDS011;9005;48.838;10.112;2023-09-30T13:47:16;6.70;;;4.07;;
17761;SDS011;9005;48.838;10.112;2023-09-30T13:49:43;5.45;;;3.58;;
17761;SDS011;9005;48.838;10.112;2023-09-30T13:52:11;4.90;;;3.70;;
17761;SDS011;9005;48.838;10.112;2023-09-30T13:54:38;5.15;;;3.60;;
17761;SDS011;9005;48.838;10.112;2023-09-30T13:57:05;4.82;;;3.63;;
17761;SDS011;9005;48.838;10.112;2023-09-30T13:59:33;5.00;;;3.45;;
17761;SDS011;9005;48.838;10.112;2023-09-30T14:02:02;5.32;;;3.65;;
17761;SDS011;9005;48.838;10.112;2023-09-30T14:04:30;5.63;;;3.53;;
17761;SDS011;9005;48.838;10.112;2023-09-30T14:06:57;5.82;;;3.90;;
17761;SDS011;9005;48.838;10.112;2023-09-30T14:09:24;8.18;;;4.25;;
17761;SDS011;9005;48.838;10.112;2023-09-30T14:11:51;5.53;;;4.03;;
17761;SDS011;9005;48.838;10.112;2023-09-30T14:14:18;5.50;;;3.90;;
17761;SDS011;9005;48.838;10.112;2023-09-30T14:16:45;5.35;;;3.40;;
17761;SDS011;9005;48.838;10.112;2023-09-30T14:19:14;4.65;;;3.08;;
17761;SDS011;9005;48.838;10.112;2023-09-30T14:21:40;5.97;;;3.88;;
17761;SDS011;9005;48.838;10.112;2023-09-30T14:24:07;5.53;;;3.35;;
17761;SDS011;9005;48.838;10.112;2023-09-30T14:26:34;4.65;;;3.45;;
17761;SDS011;9005;48.838;10.112;2023-09-30T14:29:01;4.85;;;3.25;;
17761;SDS011;9005;48.838;10.112;2023-09-30T14:31:28;6.45;;;3.97;;
17761;SDS011;9005;48.838;10.112;2023-09-30T14:33:55;5.35;;;3.58;;
17761;SDS011;9005;48.838;10.112;2023-09-30T14:36:23;5.63;;;3.63;;
17761;SDS011;9005;48.838;10.112;2023-09-30T14:38:49;4.65;;;3.70;;
17761;SDS011;9005;48.838;10.112;2023-09-30T14:41:16;6.47;;;3.35;;
17761;SDS011;9005;48.838;10.112;2023-09-30T14:43:43;4.45;;;3.42;;
17761;SDS011;9005;48.838;10.112;2023-09-30T14:46:10;5.93;;;3.63;;
17761;SDS011;9005;48.838;10.112;2023-09-30T14:48:37;6.18;;;3.90;;
17761;SDS011;9005;48.838;10.112;2023-09-30T14:51:04;5.30;;;3.35;;
17761;SDS011;9005;48.838;10.112;2023-09-30T14:53:34;6.75;;;3.40;;
17761;SDS011;9005;48.838;10.112;2023-09-30T14:56:01;5.10;;;3.58;;
17761;SDS011;9005;48.838;10.112;2023-09-30T14:58:27;4.90;;;3.33;;